<?xml version="1.0" encoding="UTF-8" standalone="no" ?>
<gpx xmlns="http://www.topografix.com/GPX/1/1" xmlns:xsi="http://www.w3.org/2001/XMLSchema-instance" xsi:schemaLocation="http://www.topografix.com/GPX/1/1 http://www.topografix.com/GPX/1/1/gpx.xsd" version="1.1" creator="VisuGPX - https://www.visugpx.com">
  <metadata>
    <name>Villers - Rieux</name>
    <desc><![CDATA[Montagne de Roc
vallée du Rhony
église de Rieux
Cafosse]]></desc>
  </metadata>
  <wpt lat="49.29238" lon="2.50193">
    <ele>44</ele>
  </wpt>
  <wpt lat="49.30107" lon="2.51016">
    <ele>65</ele>
    <name><![CDATA[WP 02EGLISE DE RIEUX]]></name>
  </wpt>
  <wpt lat="49.30223" lon="2.50895">
    <ele>76</ele>
    <name><![CDATA[WP 03VALLEE DU RHONY]]></name>
  </wpt>
  <wpt lat="49.3024" lon="2.50936">
    <ele>67</ele>
    <name><![CDATA[WP 04CAFOSSE]]></name>
  </wpt>
  <wpt lat="49.3025" lon="2.50958">
    <ele>67</ele>
    <name><![CDATA[WP 05MONTAGNE DE ROC]]></name>
  </wpt>
  <wpt lat="49.29362" lon="2.49798">
    <ele>61</ele>
  </wpt>
  <trk>
    <name><![CDATA[Villers - Rieux_1]]></name>
    <trkseg>
      <trkpt lat="49.29238" lon="2.50193">
        <ele>44</ele>
        <time>2011-12-11T08:25:49Z</time>
      </trkpt>
      <trkpt lat="49.29242" lon="2.50205">
        <ele>44</ele>
        <time>2011-12-11T08:26:05Z</time>
      </trkpt>
      <trkpt lat="49.29253" lon="2.50207">
        <ele>44</ele>
        <time>2011-12-11T08:26:12Z</time>
      </trkpt>
      <trkpt lat="49.2925" lon="2.5022">
        <ele>44</ele>
        <time>2011-12-11T08:26:16Z</time>
      </trkpt>
      <trkpt lat="49.2925" lon="2.50235">
        <ele>44</ele>
        <time>2011-12-11T08:26:25Z</time>
      </trkpt>
      <trkpt lat="49.29252" lon="2.5025">
        <ele>44</ele>
        <time>2011-12-11T08:26:36Z</time>
      </trkpt>
      <trkpt lat="49.29259" lon="2.50261">
        <ele>44</ele>
        <time>2011-12-11T08:26:45Z</time>
      </trkpt>
      <trkpt lat="49.29264" lon="2.50272">
        <ele>34</ele>
        <time>2011-12-11T08:26:54Z</time>
      </trkpt>
      <trkpt lat="49.29268" lon="2.50286">
        <ele>34</ele>
        <time>2011-12-11T08:27:02Z</time>
      </trkpt>
      <trkpt lat="49.29269" lon="2.50302">
        <ele>34</ele>
        <time>2011-12-11T08:27:09Z</time>
      </trkpt>
      <trkpt lat="49.29265" lon="2.50317">
        <ele>34</ele>
        <time>2011-12-11T08:27:15Z</time>
      </trkpt>
      <trkpt lat="49.29274" lon="2.50324">
        <ele>34</ele>
        <time>2011-12-11T08:27:21Z</time>
      </trkpt>
      <trkpt lat="49.29277" lon="2.50339">
        <ele>34</ele>
        <time>2011-12-11T08:27:32Z</time>
      </trkpt>
      <trkpt lat="49.29279" lon="2.50354">
        <ele>34</ele>
        <time>2011-12-11T08:27:40Z</time>
      </trkpt>
      <trkpt lat="49.29283" lon="2.50367">
        <ele>39</ele>
        <time>2011-12-11T08:27:47Z</time>
      </trkpt>
      <trkpt lat="49.29287" lon="2.50379">
        <ele>39</ele>
        <time>2011-12-11T08:27:56Z</time>
      </trkpt>
      <trkpt lat="49.29294" lon="2.50389">
        <ele>39</ele>
        <time>2011-12-11T08:28:04Z</time>
      </trkpt>
      <trkpt lat="49.29301" lon="2.50398">
        <ele>39</ele>
        <time>2011-12-11T08:28:12Z</time>
      </trkpt>
      <trkpt lat="49.29307" lon="2.50409">
        <ele>39</ele>
        <time>2011-12-11T08:28:20Z</time>
      </trkpt>
      <trkpt lat="49.29316" lon="2.50413">
        <ele>39</ele>
        <time>2011-12-11T08:28:27Z</time>
      </trkpt>
      <trkpt lat="49.29323" lon="2.50422">
        <ele>39</ele>
        <time>2011-12-11T08:28:35Z</time>
      </trkpt>
      <trkpt lat="49.2933" lon="2.50431">
        <ele>39</ele>
        <time>2011-12-11T08:28:44Z</time>
      </trkpt>
      <trkpt lat="49.29334" lon="2.50444">
        <ele>39</ele>
        <time>2011-12-11T08:28:52Z</time>
      </trkpt>
      <trkpt lat="49.29344" lon="2.50449">
        <ele>39</ele>
        <time>2011-12-11T08:29:01Z</time>
      </trkpt>
      <trkpt lat="49.29356" lon="2.50453">
        <ele>39</ele>
        <time>2011-12-11T08:29:13Z</time>
      </trkpt>
      <trkpt lat="49.29365" lon="2.50457">
        <ele>39</ele>
        <time>2011-12-11T08:29:21Z</time>
      </trkpt>
      <trkpt lat="49.29369" lon="2.50469">
        <ele>39</ele>
        <time>2011-12-11T08:29:31Z</time>
      </trkpt>
      <trkpt lat="49.29381" lon="2.50469">
        <ele>39</ele>
        <time>2011-12-11T08:29:41Z</time>
      </trkpt>
      <trkpt lat="49.29388" lon="2.5048">
        <ele>39</ele>
        <time>2011-12-11T08:29:50Z</time>
      </trkpt>
      <trkpt lat="49.29398" lon="2.50486">
        <ele>39</ele>
        <time>2011-12-11T08:29:57Z</time>
      </trkpt>
      <trkpt lat="49.29405" lon="2.50498">
        <ele>39</ele>
        <time>2011-12-11T08:30:06Z</time>
      </trkpt>
      <trkpt lat="49.29412" lon="2.50508">
        <ele>39</ele>
        <time>2011-12-11T08:30:14Z</time>
      </trkpt>
      <trkpt lat="49.29418" lon="2.5052">
        <ele>39</ele>
        <time>2011-12-11T08:30:19Z</time>
      </trkpt>
      <trkpt lat="49.29425" lon="2.5053">
        <ele>46</ele>
        <time>2011-12-11T08:30:27Z</time>
      </trkpt>
      <trkpt lat="49.29434" lon="2.50535">
        <ele>46</ele>
        <time>2011-12-11T08:30:33Z</time>
      </trkpt>
      <trkpt lat="49.2944" lon="2.50546">
        <ele>46</ele>
        <time>2011-12-11T08:30:44Z</time>
      </trkpt>
      <trkpt lat="49.29444" lon="2.5056">
        <ele>41</ele>
        <time>2011-12-11T08:30:55Z</time>
      </trkpt>
      <trkpt lat="49.29451" lon="2.50573">
        <ele>41</ele>
        <time>2011-12-11T08:31:05Z</time>
      </trkpt>
      <trkpt lat="49.29457" lon="2.50585">
        <ele>41</ele>
        <time>2011-12-11T08:31:13Z</time>
      </trkpt>
      <trkpt lat="49.29462" lon="2.50602">
        <ele>46</ele>
        <time>2011-12-11T08:31:23Z</time>
      </trkpt>
      <trkpt lat="49.29471" lon="2.50608">
        <ele>39</ele>
        <time>2011-12-11T08:31:33Z</time>
      </trkpt>
      <trkpt lat="49.29477" lon="2.50621">
        <ele>39</ele>
        <time>2011-12-11T08:31:42Z</time>
      </trkpt>
      <trkpt lat="49.29482" lon="2.50634">
        <ele>39</ele>
        <time>2011-12-11T08:31:50Z</time>
      </trkpt>
      <trkpt lat="49.29486" lon="2.50646">
        <ele>39</ele>
        <time>2011-12-11T08:31:57Z</time>
      </trkpt>
      <trkpt lat="49.29492" lon="2.50657">
        <ele>45</ele>
        <time>2011-12-11T08:32:04Z</time>
      </trkpt>
      <trkpt lat="49.29498" lon="2.50667">
        <ele>45</ele>
        <time>2011-12-11T08:32:11Z</time>
      </trkpt>
      <trkpt lat="49.29502" lon="2.5068">
        <ele>45</ele>
        <time>2011-12-11T08:32:20Z</time>
      </trkpt>
      <trkpt lat="49.29508" lon="2.50691">
        <ele>45</ele>
        <time>2011-12-11T08:32:29Z</time>
      </trkpt>
      <trkpt lat="49.29508" lon="2.50705">
        <ele>40</ele>
        <time>2011-12-11T08:32:37Z</time>
      </trkpt>
      <trkpt lat="49.29512" lon="2.50719">
        <ele>40</ele>
        <time>2011-12-11T08:32:44Z</time>
      </trkpt>
      <trkpt lat="49.29516" lon="2.50732">
        <ele>40</ele>
        <time>2011-12-11T08:32:51Z</time>
      </trkpt>
      <trkpt lat="49.29525" lon="2.50726">
        <ele>45</ele>
        <time>2011-12-11T08:33:06Z</time>
      </trkpt>
      <trkpt lat="49.29535" lon="2.50721">
        <ele>45</ele>
        <time>2011-12-11T08:33:16Z</time>
      </trkpt>
      <trkpt lat="49.29545" lon="2.50714">
        <ele>45</ele>
        <time>2011-12-11T08:33:26Z</time>
      </trkpt>
      <trkpt lat="49.29551" lon="2.50726">
        <ele>52</ele>
        <time>2011-12-11T08:33:36Z</time>
      </trkpt>
      <trkpt lat="49.29555" lon="2.5074">
        <ele>52</ele>
        <time>2011-12-11T08:33:46Z</time>
      </trkpt>
      <trkpt lat="49.29562" lon="2.50749">
        <ele>47</ele>
        <time>2011-12-11T08:33:54Z</time>
      </trkpt>
      <trkpt lat="49.29568" lon="2.50762">
        <ele>47</ele>
        <time>2011-12-11T08:34:05Z</time>
      </trkpt>
      <trkpt lat="49.29576" lon="2.50772">
        <ele>47</ele>
        <time>2011-12-11T08:34:10Z</time>
      </trkpt>
      <trkpt lat="49.29576" lon="2.50787">
        <ele>47</ele>
        <time>2011-12-11T08:34:19Z</time>
      </trkpt>
      <trkpt lat="49.29578" lon="2.50802">
        <ele>47</ele>
        <time>2011-12-11T08:34:29Z</time>
      </trkpt>
      <trkpt lat="49.29583" lon="2.50813">
        <ele>47</ele>
        <time>2011-12-11T08:34:38Z</time>
      </trkpt>
      <trkpt lat="49.29588" lon="2.50826">
        <ele>47</ele>
        <time>2011-12-11T08:34:47Z</time>
      </trkpt>
      <trkpt lat="49.29593" lon="2.50837">
        <ele>53</ele>
        <time>2011-12-11T08:34:54Z</time>
      </trkpt>
      <trkpt lat="49.29599" lon="2.50848">
        <ele>53</ele>
        <time>2011-12-11T08:35:02Z</time>
      </trkpt>
      <trkpt lat="49.29605" lon="2.50861">
        <ele>53</ele>
        <time>2011-12-11T08:35:11Z</time>
      </trkpt>
      <trkpt lat="49.29612" lon="2.50873">
        <ele>53</ele>
        <time>2011-12-11T08:35:20Z</time>
      </trkpt>
      <trkpt lat="49.29616" lon="2.50886">
        <ele>53</ele>
        <time>2011-12-11T08:35:30Z</time>
      </trkpt>
      <trkpt lat="49.29625" lon="2.50896">
        <ele>53</ele>
        <time>2011-12-11T08:35:37Z</time>
      </trkpt>
      <trkpt lat="49.29633" lon="2.50903">
        <ele>53</ele>
        <time>2011-12-11T08:35:45Z</time>
      </trkpt>
      <trkpt lat="49.29642" lon="2.50898">
        <ele>47</ele>
        <time>2011-12-11T08:35:54Z</time>
      </trkpt>
      <trkpt lat="49.29651" lon="2.50892">
        <ele>47</ele>
        <time>2011-12-11T08:36:04Z</time>
      </trkpt>
      <trkpt lat="49.29659" lon="2.50884">
        <ele>47</ele>
        <time>2011-12-11T08:36:12Z</time>
      </trkpt>
      <trkpt lat="49.29667" lon="2.50878">
        <ele>47</ele>
        <time>2011-12-11T08:36:21Z</time>
      </trkpt>
      <trkpt lat="49.29675" lon="2.5087">
        <ele>47</ele>
        <time>2011-12-11T08:36:31Z</time>
      </trkpt>
      <trkpt lat="49.29683" lon="2.5086">
        <ele>47</ele>
        <time>2011-12-11T08:36:40Z</time>
      </trkpt>
      <trkpt lat="49.29688" lon="2.50848">
        <ele>53</ele>
        <time>2011-12-11T08:36:51Z</time>
      </trkpt>
      <trkpt lat="49.29697" lon="2.50839">
        <ele>53</ele>
        <time>2011-12-11T08:37:02Z</time>
      </trkpt>
      <trkpt lat="49.29704" lon="2.5083">
        <ele>59</ele>
        <time>2011-12-11T08:37:12Z</time>
      </trkpt>
      <trkpt lat="49.29713" lon="2.50825">
        <ele>59</ele>
        <time>2011-12-11T08:37:21Z</time>
      </trkpt>
      <trkpt lat="49.29721" lon="2.50817">
        <ele>59</ele>
        <time>2011-12-11T08:37:30Z</time>
      </trkpt>
      <trkpt lat="49.2973" lon="2.50812">
        <ele>59</ele>
        <time>2011-12-11T08:37:39Z</time>
      </trkpt>
      <trkpt lat="49.29737" lon="2.50804">
        <ele>59</ele>
        <time>2011-12-11T08:37:47Z</time>
      </trkpt>
      <trkpt lat="49.29747" lon="2.50803">
        <ele>65</ele>
        <time>2011-12-11T08:37:56Z</time>
      </trkpt>
      <trkpt lat="49.29756" lon="2.50808">
        <ele>65</ele>
        <time>2011-12-11T08:38:04Z</time>
      </trkpt>
      <trkpt lat="49.29763" lon="2.50819">
        <ele>65</ele>
        <time>2011-12-11T08:38:11Z</time>
      </trkpt>
      <trkpt lat="49.29769" lon="2.5083">
        <ele>59</ele>
        <time>2011-12-11T08:38:21Z</time>
      </trkpt>
      <trkpt lat="49.29776" lon="2.50841">
        <ele>59</ele>
        <time>2011-12-11T08:38:29Z</time>
      </trkpt>
      <trkpt lat="49.29782" lon="2.50853">
        <ele>59</ele>
        <time>2011-12-11T08:38:36Z</time>
      </trkpt>
      <trkpt lat="49.29785" lon="2.50867">
        <ele>59</ele>
        <time>2011-12-11T08:38:47Z</time>
      </trkpt>
      <trkpt lat="49.29791" lon="2.50879">
        <ele>59</ele>
        <time>2011-12-11T08:38:56Z</time>
      </trkpt>
      <trkpt lat="49.29798" lon="2.50888">
        <ele>59</ele>
        <time>2011-12-11T08:39:01Z</time>
      </trkpt>
      <trkpt lat="49.29805" lon="2.50899">
        <ele>59</ele>
        <time>2011-12-11T08:39:09Z</time>
      </trkpt>
      <trkpt lat="49.29813" lon="2.50907">
        <ele>59</ele>
        <time>2011-12-11T08:39:14Z</time>
      </trkpt>
      <trkpt lat="49.2982" lon="2.50915">
        <ele>59</ele>
        <time>2011-12-11T08:39:21Z</time>
      </trkpt>
      <trkpt lat="49.29824" lon="2.50927">
        <ele>59</ele>
        <time>2011-12-11T08:39:29Z</time>
      </trkpt>
      <trkpt lat="49.29827" lon="2.50942">
        <ele>59</ele>
        <time>2011-12-11T08:39:38Z</time>
      </trkpt>
      <trkpt lat="49.29833" lon="2.50953">
        <ele>59</ele>
        <time>2011-12-11T08:39:45Z</time>
      </trkpt>
      <trkpt lat="49.2984" lon="2.50963">
        <ele>59</ele>
        <time>2011-12-11T08:39:54Z</time>
      </trkpt>
      <trkpt lat="49.29847" lon="2.50972">
        <ele>59</ele>
        <time>2011-12-11T08:40:01Z</time>
      </trkpt>
      <trkpt lat="49.29853" lon="2.50986">
        <ele>54</ele>
        <time>2011-12-11T08:40:09Z</time>
      </trkpt>
      <trkpt lat="49.29858" lon="2.50997">
        <ele>54</ele>
        <time>2011-12-11T08:40:17Z</time>
      </trkpt>
      <trkpt lat="49.29864" lon="2.51007">
        <ele>54</ele>
        <time>2011-12-11T08:40:23Z</time>
      </trkpt>
      <trkpt lat="49.29869" lon="2.51021">
        <ele>54</ele>
        <time>2011-12-11T08:40:31Z</time>
      </trkpt>
      <trkpt lat="49.29871" lon="2.51034">
        <ele>59</ele>
        <time>2011-12-11T08:40:39Z</time>
      </trkpt>
      <trkpt lat="49.29881" lon="2.51038">
        <ele>59</ele>
        <time>2011-12-11T08:40:48Z</time>
      </trkpt>
      <trkpt lat="49.2989" lon="2.51045">
        <ele>73</ele>
        <time>2011-12-11T08:41:07Z</time>
      </trkpt>
      <trkpt lat="49.29899" lon="2.51047">
        <ele>73</ele>
        <time>2011-12-11T08:41:13Z</time>
      </trkpt>
      <trkpt lat="49.29908" lon="2.5105">
        <ele>73</ele>
        <time>2011-12-11T08:41:21Z</time>
      </trkpt>
      <trkpt lat="49.29917" lon="2.5105">
        <ele>66</ele>
        <time>2011-12-11T08:41:28Z</time>
      </trkpt>
      <trkpt lat="49.29928" lon="2.51048">
        <ele>66</ele>
        <time>2011-12-11T08:41:36Z</time>
      </trkpt>
      <trkpt lat="49.29935" lon="2.51039">
        <ele>71</ele>
        <time>2011-12-11T08:41:51Z</time>
      </trkpt>
      <trkpt lat="49.29943" lon="2.5103">
        <ele>71</ele>
        <time>2011-12-11T08:42:03Z</time>
      </trkpt>
      <trkpt lat="49.29953" lon="2.51024">
        <ele>71</ele>
        <time>2011-12-11T08:42:13Z</time>
      </trkpt>
      <trkpt lat="49.29961" lon="2.51032">
        <ele>79</ele>
        <time>2011-12-11T08:42:24Z</time>
      </trkpt>
      <trkpt lat="49.29969" lon="2.51038">
        <ele>71</ele>
        <time>2011-12-11T08:42:40Z</time>
      </trkpt>
      <trkpt lat="49.29979" lon="2.51041">
        <ele>71</ele>
        <time>2011-12-11T08:43:02Z</time>
      </trkpt>
      <trkpt lat="49.29989" lon="2.51046">
        <ele>71</ele>
        <time>2011-12-11T08:43:15Z</time>
      </trkpt>
      <trkpt lat="49.29981" lon="2.5104">
        <ele>71</ele>
        <time>2011-12-11T08:43:26Z</time>
      </trkpt>
      <trkpt lat="49.29969" lon="2.51042">
        <ele>71</ele>
        <time>2011-12-11T08:43:36Z</time>
      </trkpt>
      <trkpt lat="49.29981" lon="2.51044">
        <ele>59</ele>
        <time>2011-12-11T08:43:47Z</time>
      </trkpt>
      <trkpt lat="49.29994" lon="2.51051">
        <ele>65</ele>
        <time>2011-12-11T08:43:59Z</time>
      </trkpt>
      <trkpt lat="49.30004" lon="2.51041">
        <ele>74</ele>
        <time>2011-12-11T08:44:22Z</time>
      </trkpt>
      <trkpt lat="49.30017" lon="2.51041">
        <ele>74</ele>
        <time>2011-12-11T08:44:32Z</time>
      </trkpt>
      <trkpt lat="49.30008" lon="2.51045">
        <ele>74</ele>
        <time>2011-12-11T08:44:44Z</time>
      </trkpt>
      <trkpt lat="49.3001" lon="2.51059">
        <ele>74</ele>
        <time>2011-12-11T08:45:27Z</time>
      </trkpt>
      <trkpt lat="49.30018" lon="2.51069">
        <ele>67</ele>
        <time>2011-12-11T08:45:43Z</time>
      </trkpt>
      <trkpt lat="49.30026" lon="2.51077">
        <ele>67</ele>
        <time>2011-12-11T08:45:50Z</time>
      </trkpt>
      <trkpt lat="49.30032" lon="2.51087">
        <ele>75</ele>
        <time>2011-12-11T08:46:01Z</time>
      </trkpt>
      <trkpt lat="49.30042" lon="2.51086">
        <ele>75</ele>
        <time>2011-12-11T08:46:09Z</time>
      </trkpt>
      <trkpt lat="49.30051" lon="2.51082">
        <ele>75</ele>
        <time>2011-12-11T08:46:18Z</time>
      </trkpt>
      <trkpt lat="49.30061" lon="2.5108">
        <ele>75</ele>
        <time>2011-12-11T08:46:25Z</time>
      </trkpt>
      <trkpt lat="49.30069" lon="2.51074">
        <ele>75</ele>
        <time>2011-12-11T08:46:32Z</time>
      </trkpt>
      <trkpt lat="49.30078" lon="2.51068">
        <ele>75</ele>
        <time>2011-12-11T08:46:40Z</time>
      </trkpt>
      <trkpt lat="49.30081" lon="2.51055">
        <ele>75</ele>
        <time>2011-12-11T08:46:52Z</time>
      </trkpt>
      <trkpt lat="49.30089" lon="2.51048">
        <ele>67</ele>
        <time>2011-12-11T08:46:58Z</time>
      </trkpt>
      <trkpt lat="49.30096" lon="2.51036">
        <ele>67</ele>
        <time>2011-12-11T08:47:05Z</time>
      </trkpt>
      <trkpt lat="49.30108" lon="2.51034">
        <ele>67</ele>
        <time>2011-12-11T08:47:09Z</time>
      </trkpt>
      <trkpt lat="49.30102" lon="2.51022">
        <ele>67</ele>
        <time>2011-12-11T08:47:17Z</time>
      </trkpt>
      <trkpt lat="49.30106" lon="2.51007">
        <ele>67</ele>
        <time>2011-12-11T08:47:26Z</time>
      </trkpt>
      <trkpt lat="49.30106" lon="2.50993">
        <ele>67</ele>
        <time>2011-12-11T08:47:35Z</time>
      </trkpt>
      <trkpt lat="49.30116" lon="2.50988">
        <ele>67</ele>
        <time>2011-12-11T08:47:41Z</time>
      </trkpt>
      <trkpt lat="49.30126" lon="2.50991">
        <ele>67</ele>
        <time>2011-12-11T08:47:43Z</time>
      </trkpt>
      <trkpt lat="49.30123" lon="2.51005">
        <ele>67</ele>
        <time>2011-12-11T08:47:51Z</time>
      </trkpt>
      <trkpt lat="49.30115" lon="2.51017">
        <ele>67</ele>
        <time>2011-12-11T08:48:00Z</time>
      </trkpt>
      <trkpt lat="49.30105" lon="2.51015">
        <ele>67</ele>
        <time>2011-12-11T08:48:57Z</time>
      </trkpt>
      <trkpt lat="49.30107" lon="2.51016">
        <ele>65</ele>
        <time>2011-12-11T08:48:53Z</time>
      </trkpt>
      <trkpt lat="49.30117" lon="2.51013">
        <ele>81</ele>
        <time>2011-12-11T08:49:35Z</time>
      </trkpt>
      <trkpt lat="49.30126" lon="2.51005">
        <ele>81</ele>
        <time>2011-12-11T08:49:43Z</time>
      </trkpt>
      <trkpt lat="49.30132" lon="2.50991">
        <ele>81</ele>
        <time>2011-12-11T08:49:53Z</time>
      </trkpt>
      <trkpt lat="49.30138" lon="2.50981">
        <ele>81</ele>
        <time>2011-12-11T08:50:01Z</time>
      </trkpt>
      <trkpt lat="49.30145" lon="2.5097">
        <ele>81</ele>
        <time>2011-12-11T08:50:09Z</time>
      </trkpt>
      <trkpt lat="49.30152" lon="2.5096">
        <ele>81</ele>
        <time>2011-12-11T08:50:17Z</time>
      </trkpt>
      <trkpt lat="49.30159" lon="2.5095">
        <ele>81</ele>
        <time>2011-12-11T08:50:24Z</time>
      </trkpt>
      <trkpt lat="49.30167" lon="2.50941">
        <ele>81</ele>
        <time>2011-12-11T08:50:31Z</time>
      </trkpt>
      <trkpt lat="49.30173" lon="2.50928">
        <ele>87</ele>
        <time>2011-12-11T08:50:38Z</time>
      </trkpt>
      <trkpt lat="49.30177" lon="2.50916">
        <ele>87</ele>
        <time>2011-12-11T08:50:48Z</time>
      </trkpt>
      <trkpt lat="49.30186" lon="2.5091">
        <ele>87</ele>
        <time>2011-12-11T08:50:57Z</time>
      </trkpt>
      <trkpt lat="49.30186" lon="2.50895">
        <ele>69</ele>
        <time>2011-12-11T08:51:11Z</time>
      </trkpt>
      <trkpt lat="49.30193" lon="2.50886">
        <ele>69</ele>
        <time>2011-12-11T08:51:25Z</time>
      </trkpt>
      <trkpt lat="49.30201" lon="2.50892">
        <ele>69</ele>
        <time>2011-12-11T08:51:41Z</time>
      </trkpt>
      <trkpt lat="49.30211" lon="2.50895">
        <ele>69</ele>
        <time>2011-12-11T08:51:50Z</time>
      </trkpt>
      <trkpt lat="49.30221" lon="2.50897">
        <ele>75</ele>
        <time>2011-12-11T08:51:56Z</time>
      </trkpt>
      <trkpt lat="49.30213" lon="2.50891">
        <ele>68</ele>
        <time>2011-12-11T08:52:23Z</time>
      </trkpt>
      <trkpt lat="49.30223" lon="2.50895">
        <ele>76</ele>
        <time>2011-12-11T08:52:09Z</time>
      </trkpt>
      <trkpt lat="49.30209" lon="2.50893">
        <ele>68</ele>
        <time>2011-12-11T08:52:37Z</time>
      </trkpt>
      <trkpt lat="49.302" lon="2.5089">
        <ele>55</ele>
        <time>2011-12-11T08:53:10Z</time>
      </trkpt>
      <trkpt lat="49.30207" lon="2.50901">
        <ele>55</ele>
        <time>2011-12-11T08:53:32Z</time>
      </trkpt>
      <trkpt lat="49.30215" lon="2.50908">
        <ele>55</ele>
        <time>2011-12-11T08:53:39Z</time>
      </trkpt>
      <trkpt lat="49.30223" lon="2.50917">
        <ele>61</ele>
        <time>2011-12-11T08:53:44Z</time>
      </trkpt>
      <trkpt lat="49.3023" lon="2.50926">
        <ele>61</ele>
        <time>2011-12-11T08:53:51Z</time>
      </trkpt>
      <trkpt lat="49.30239" lon="2.50933">
        <ele>66</ele>
        <time>2011-12-11T08:54:04Z</time>
      </trkpt>
      <trkpt lat="49.30246" lon="2.50942">
        <ele>66</ele>
        <time>2011-12-11T08:54:21Z</time>
      </trkpt>
      <trkpt lat="49.3024" lon="2.50936">
        <ele>67</ele>
        <time>2011-12-11T08:54:13Z</time>
      </trkpt>
      <trkpt lat="49.30246" lon="2.50947">
        <ele>72</ele>
        <time>2011-12-11T08:54:37Z</time>
      </trkpt>
      <trkpt lat="49.30254" lon="2.50954">
        <ele>66</ele>
        <time>2011-12-11T08:55:07Z</time>
      </trkpt>
      <trkpt lat="49.3026" lon="2.50944">
        <ele>66</ele>
        <time>2011-12-11T08:55:40Z</time>
      </trkpt>
      <trkpt lat="49.30253" lon="2.50953">
        <ele>66</ele>
        <time>2011-12-11T08:55:54Z</time>
      </trkpt>
      <trkpt lat="49.3025" lon="2.50958">
        <ele>67</ele>
        <time>2011-12-11T08:57:59Z</time>
      </trkpt>
      <trkpt lat="49.30243" lon="2.50968">
        <ele>66</ele>
        <time>2011-12-11T08:58:49Z</time>
      </trkpt>
      <trkpt lat="49.30235" lon="2.50961">
        <ele>66</ele>
        <time>2011-12-11T08:59:08Z</time>
      </trkpt>
      <trkpt lat="49.3023" lon="2.5095">
        <ele>66</ele>
        <time>2011-12-11T08:59:14Z</time>
      </trkpt>
      <trkpt lat="49.30224" lon="2.50936">
        <ele>66</ele>
        <time>2011-12-11T08:59:25Z</time>
      </trkpt>
      <trkpt lat="49.30218" lon="2.50925">
        <ele>66</ele>
        <time>2011-12-11T08:59:31Z</time>
      </trkpt>
      <trkpt lat="49.30209" lon="2.50918">
        <ele>61</ele>
        <time>2011-12-11T08:59:46Z</time>
      </trkpt>
      <trkpt lat="49.30204" lon="2.50903">
        <ele>71</ele>
        <time>2011-12-11T09:00:06Z</time>
      </trkpt>
      <trkpt lat="49.30204" lon="2.5088">
        <ele>71</ele>
        <time>2011-12-11T09:00:26Z</time>
      </trkpt>
      <trkpt lat="49.30196" lon="2.50869">
        <ele>64</ele>
        <time>2011-12-11T09:00:28Z</time>
      </trkpt>
      <trkpt lat="49.30196" lon="2.50852">
        <ele>70</ele>
        <time>2011-12-11T09:00:40Z</time>
      </trkpt>
      <trkpt lat="49.30196" lon="2.50838">
        <ele>70</ele>
        <time>2011-12-11T09:00:48Z</time>
      </trkpt>
      <trkpt lat="49.30197" lon="2.50823">
        <ele>65</ele>
        <time>2011-12-11T09:00:57Z</time>
      </trkpt>
      <trkpt lat="49.30195" lon="2.50809">
        <ele>65</ele>
        <time>2011-12-11T09:01:04Z</time>
      </trkpt>
      <trkpt lat="49.30197" lon="2.50794">
        <ele>65</ele>
        <time>2011-12-11T09:01:13Z</time>
      </trkpt>
      <trkpt lat="49.30206" lon="2.50787">
        <ele>65</ele>
        <time>2011-12-11T09:01:18Z</time>
      </trkpt>
      <trkpt lat="49.3021" lon="2.50773">
        <ele>81</ele>
        <time>2011-12-11T09:01:27Z</time>
      </trkpt>
      <trkpt lat="49.30219" lon="2.50767">
        <ele>81</ele>
        <time>2011-12-11T09:01:32Z</time>
      </trkpt>
      <trkpt lat="49.30217" lon="2.5075">
        <ele>81</ele>
        <time>2011-12-11T09:01:41Z</time>
      </trkpt>
      <trkpt lat="49.30215" lon="2.50736">
        <ele>81</ele>
        <time>2011-12-11T09:01:50Z</time>
      </trkpt>
      <trkpt lat="49.30221" lon="2.50725">
        <ele>81</ele>
        <time>2011-12-11T09:01:57Z</time>
      </trkpt>
      <trkpt lat="49.30223" lon="2.50711">
        <ele>81</ele>
        <time>2011-12-11T09:02:06Z</time>
      </trkpt>
      <trkpt lat="49.30233" lon="2.50702">
        <ele>81</ele>
        <time>2011-12-11T09:02:12Z</time>
      </trkpt>
      <trkpt lat="49.30241" lon="2.50695">
        <ele>81</ele>
        <time>2011-12-11T09:02:18Z</time>
      </trkpt>
      <trkpt lat="49.30246" lon="2.50682">
        <ele>87</ele>
        <time>2011-12-11T09:02:27Z</time>
      </trkpt>
      <trkpt lat="49.30253" lon="2.50669">
        <ele>96</ele>
        <time>2011-12-11T09:02:39Z</time>
      </trkpt>
      <trkpt lat="49.3026" lon="2.5066">
        <ele>96</ele>
        <time>2011-12-11T09:02:44Z</time>
      </trkpt>
      <trkpt lat="49.30268" lon="2.5065">
        <ele>96</ele>
        <time>2011-12-11T09:02:51Z</time>
      </trkpt>
      <trkpt lat="49.30273" lon="2.50636">
        <ele>96</ele>
        <time>2011-12-11T09:03:00Z</time>
      </trkpt>
      <trkpt lat="49.3028" lon="2.50627">
        <ele>96</ele>
        <time>2011-12-11T09:03:10Z</time>
      </trkpt>
      <trkpt lat="49.3028" lon="2.50612">
        <ele>96</ele>
        <time>2011-12-11T09:03:17Z</time>
      </trkpt>
      <trkpt lat="49.30288" lon="2.50603">
        <ele>96</ele>
        <time>2011-12-11T09:03:23Z</time>
      </trkpt>
      <trkpt lat="49.30289" lon="2.50589">
        <ele>96</ele>
        <time>2011-12-11T09:03:30Z</time>
      </trkpt>
      <trkpt lat="49.30294" lon="2.50576">
        <ele>102</ele>
        <time>2011-12-11T09:03:41Z</time>
      </trkpt>
      <trkpt lat="49.30298" lon="2.50564">
        <ele>102</ele>
        <time>2011-12-11T09:03:50Z</time>
      </trkpt>
      <trkpt lat="49.303" lon="2.50548">
        <ele>102</ele>
        <time>2011-12-11T09:04:00Z</time>
      </trkpt>
      <trkpt lat="49.30294" lon="2.50535">
        <ele>102</ele>
        <time>2011-12-11T09:04:07Z</time>
      </trkpt>
      <trkpt lat="49.30293" lon="2.5052">
        <ele>102</ele>
        <time>2011-12-11T09:04:15Z</time>
      </trkpt>
      <trkpt lat="49.30295" lon="2.50505">
        <ele>102</ele>
        <time>2011-12-11T09:04:23Z</time>
      </trkpt>
      <trkpt lat="49.30294" lon="2.5049">
        <ele>102</ele>
        <time>2011-12-11T09:04:32Z</time>
      </trkpt>
      <trkpt lat="49.30298" lon="2.50477">
        <ele>102</ele>
        <time>2011-12-11T09:04:42Z</time>
      </trkpt>
      <trkpt lat="49.30303" lon="2.50464">
        <ele>102</ele>
        <time>2011-12-11T09:04:50Z</time>
      </trkpt>
      <trkpt lat="49.30301" lon="2.50449">
        <ele>102</ele>
        <time>2011-12-11T09:04:59Z</time>
      </trkpt>
      <trkpt lat="49.30304" lon="2.50436">
        <ele>102</ele>
        <time>2011-12-11T09:05:11Z</time>
      </trkpt>
      <trkpt lat="49.30303" lon="2.50422">
        <ele>102</ele>
        <time>2011-12-11T09:05:26Z</time>
      </trkpt>
      <trkpt lat="49.30294" lon="2.50425">
        <ele>102</ele>
        <time>2011-12-11T09:05:46Z</time>
      </trkpt>
      <trkpt lat="49.3029" lon="2.50412">
        <ele>102</ele>
        <time>2011-12-11T09:06:03Z</time>
      </trkpt>
      <trkpt lat="49.30299" lon="2.50407">
        <ele>102</ele>
        <time>2011-12-11T09:06:18Z</time>
      </trkpt>
      <trkpt lat="49.3029" lon="2.50411">
        <ele>115</ele>
        <time>2011-12-11T09:06:40Z</time>
      </trkpt>
      <trkpt lat="49.30281" lon="2.50406">
        <ele>100</ele>
        <time>2011-12-11T09:07:22Z</time>
      </trkpt>
      <trkpt lat="49.3027" lon="2.50404">
        <ele>100</ele>
        <time>2011-12-11T09:07:28Z</time>
      </trkpt>
      <trkpt lat="49.3026" lon="2.50405">
        <ele>111</ele>
        <time>2011-12-11T09:07:42Z</time>
      </trkpt>
      <trkpt lat="49.30249" lon="2.50402">
        <ele>111</ele>
        <time>2011-12-11T09:07:50Z</time>
      </trkpt>
      <trkpt lat="49.3024" lon="2.50401">
        <ele>111</ele>
        <time>2011-12-11T09:08:00Z</time>
      </trkpt>
      <trkpt lat="49.3023" lon="2.50398">
        <ele>104</ele>
        <time>2011-12-11T09:08:06Z</time>
      </trkpt>
      <trkpt lat="49.3022" lon="2.50397">
        <ele>104</ele>
        <time>2011-12-11T09:08:19Z</time>
      </trkpt>
      <trkpt lat="49.30211" lon="2.50396">
        <ele>104</ele>
        <time>2011-12-11T09:08:25Z</time>
      </trkpt>
      <trkpt lat="49.302" lon="2.50397">
        <ele>104</ele>
        <time>2011-12-11T09:08:33Z</time>
      </trkpt>
      <trkpt lat="49.30192" lon="2.50394">
        <ele>104</ele>
        <time>2011-12-11T09:08:38Z</time>
      </trkpt>
      <trkpt lat="49.30183" lon="2.5039">
        <ele>104</ele>
        <time>2011-12-11T09:08:48Z</time>
      </trkpt>
      <trkpt lat="49.30172" lon="2.50387">
        <ele>104</ele>
        <time>2011-12-11T09:08:53Z</time>
      </trkpt>
      <trkpt lat="49.30163" lon="2.50383">
        <ele>104</ele>
        <time>2011-12-11T09:09:04Z</time>
      </trkpt>
      <trkpt lat="49.30153" lon="2.50378">
        <ele>104</ele>
        <time>2011-12-11T09:09:10Z</time>
      </trkpt>
      <trkpt lat="49.30144" lon="2.5037">
        <ele>111</ele>
        <time>2011-12-11T09:09:17Z</time>
      </trkpt>
      <trkpt lat="49.30136" lon="2.50363">
        <ele>111</ele>
        <time>2011-12-11T09:09:26Z</time>
      </trkpt>
      <trkpt lat="49.30128" lon="2.50355">
        <ele>105</ele>
        <time>2011-12-11T09:09:34Z</time>
      </trkpt>
      <trkpt lat="49.30117" lon="2.50348">
        <ele>105</ele>
        <time>2011-12-11T09:09:42Z</time>
      </trkpt>
      <trkpt lat="49.30109" lon="2.50342">
        <ele>105</ele>
        <time>2011-12-11T09:09:49Z</time>
      </trkpt>
      <trkpt lat="49.30099" lon="2.50334">
        <ele>105</ele>
        <time>2011-12-11T09:09:56Z</time>
      </trkpt>
      <trkpt lat="49.30092" lon="2.50325">
        <ele>105</ele>
        <time>2011-12-11T09:10:06Z</time>
      </trkpt>
      <trkpt lat="49.30083" lon="2.50321">
        <ele>105</ele>
        <time>2011-12-11T09:10:13Z</time>
      </trkpt>
      <trkpt lat="49.30074" lon="2.50315">
        <ele>105</ele>
        <time>2011-12-11T09:10:19Z</time>
      </trkpt>
      <trkpt lat="49.30066" lon="2.50308">
        <ele>105</ele>
        <time>2011-12-11T09:10:27Z</time>
      </trkpt>
      <trkpt lat="49.30057" lon="2.50299">
        <ele>105</ele>
        <time>2011-12-11T09:10:37Z</time>
      </trkpt>
      <trkpt lat="49.30048" lon="2.50292">
        <ele>105</ele>
        <time>2011-12-11T09:10:43Z</time>
      </trkpt>
      <trkpt lat="49.3004" lon="2.50286">
        <ele>105</ele>
        <time>2011-12-11T09:10:49Z</time>
      </trkpt>
      <trkpt lat="49.30031" lon="2.5028">
        <ele>105</ele>
        <time>2011-12-11T09:10:57Z</time>
      </trkpt>
      <trkpt lat="49.30022" lon="2.50272">
        <ele>105</ele>
        <time>2011-12-11T09:11:07Z</time>
      </trkpt>
      <trkpt lat="49.30014" lon="2.50265">
        <ele>105</ele>
        <time>2011-12-11T09:11:14Z</time>
      </trkpt>
      <trkpt lat="49.30005" lon="2.50258">
        <ele>105</ele>
        <time>2011-12-11T09:11:22Z</time>
      </trkpt>
      <trkpt lat="49.29994" lon="2.50256">
        <ele>105</ele>
        <time>2011-12-11T09:11:32Z</time>
      </trkpt>
      <trkpt lat="49.29985" lon="2.5026">
        <ele>105</ele>
        <time>2011-12-11T09:11:40Z</time>
      </trkpt>
      <trkpt lat="49.29978" lon="2.5027">
        <ele>105</ele>
        <time>2011-12-11T09:11:48Z</time>
      </trkpt>
      <trkpt lat="49.29969" lon="2.50278">
        <ele>105</ele>
        <time>2011-12-11T09:11:56Z</time>
      </trkpt>
      <trkpt lat="49.29962" lon="2.50286">
        <ele>105</ele>
        <time>2011-12-11T09:12:04Z</time>
      </trkpt>
      <trkpt lat="49.29955" lon="2.50297">
        <ele>105</ele>
        <time>2011-12-11T09:12:11Z</time>
      </trkpt>
      <trkpt lat="49.29948" lon="2.50308">
        <ele>105</ele>
        <time>2011-12-11T09:12:19Z</time>
      </trkpt>
      <trkpt lat="49.29941" lon="2.50319">
        <ele>105</ele>
        <time>2011-12-11T09:12:28Z</time>
      </trkpt>
      <trkpt lat="49.29935" lon="2.5033">
        <ele>105</ele>
        <time>2011-12-11T09:12:37Z</time>
      </trkpt>
      <trkpt lat="49.29928" lon="2.50342">
        <ele>105</ele>
        <time>2011-12-11T09:12:45Z</time>
      </trkpt>
      <trkpt lat="49.29921" lon="2.50352">
        <ele>105</ele>
        <time>2011-12-11T09:12:53Z</time>
      </trkpt>
      <trkpt lat="49.29914" lon="2.50361">
        <ele>105</ele>
        <time>2011-12-11T09:13:01Z</time>
      </trkpt>
      <trkpt lat="49.29907" lon="2.50372">
        <ele>105</ele>
        <time>2011-12-11T09:13:09Z</time>
      </trkpt>
      <trkpt lat="49.299" lon="2.50382">
        <ele>105</ele>
        <time>2011-12-11T09:13:17Z</time>
      </trkpt>
      <trkpt lat="49.29893" lon="2.50392">
        <ele>105</ele>
        <time>2011-12-11T09:13:25Z</time>
      </trkpt>
      <trkpt lat="49.29885" lon="2.50402">
        <ele>105</ele>
        <time>2011-12-11T09:13:33Z</time>
      </trkpt>
      <trkpt lat="49.29878" lon="2.50413">
        <ele>105</ele>
        <time>2011-12-11T09:13:41Z</time>
      </trkpt>
      <trkpt lat="49.29871" lon="2.50422">
        <ele>112</ele>
        <time>2011-12-11T09:13:49Z</time>
      </trkpt>
      <trkpt lat="49.29865" lon="2.50432">
        <ele>112</ele>
        <time>2011-12-11T09:13:57Z</time>
      </trkpt>
      <trkpt lat="49.29858" lon="2.50444">
        <ele>112</ele>
        <time>2011-12-11T09:14:05Z</time>
      </trkpt>
      <trkpt lat="49.29851" lon="2.50454">
        <ele>106</ele>
        <time>2011-12-11T09:14:13Z</time>
      </trkpt>
      <trkpt lat="49.29844" lon="2.50463">
        <ele>106</ele>
        <time>2011-12-11T09:14:22Z</time>
      </trkpt>
      <trkpt lat="49.29836" lon="2.50471">
        <ele>106</ele>
        <time>2011-12-11T09:14:31Z</time>
      </trkpt>
      <trkpt lat="49.29827" lon="2.5048">
        <ele>106</ele>
        <time>2011-12-11T09:14:40Z</time>
      </trkpt>
      <trkpt lat="49.2982" lon="2.50488">
        <ele>96</ele>
        <time>2011-12-11T09:14:49Z</time>
      </trkpt>
      <trkpt lat="49.29811" lon="2.50496">
        <ele>96</ele>
        <time>2011-12-11T09:14:59Z</time>
      </trkpt>
      <trkpt lat="49.29801" lon="2.50495">
        <ele>96</ele>
        <time>2011-12-11T09:15:08Z</time>
      </trkpt>
      <trkpt lat="49.29792" lon="2.50488">
        <ele>96</ele>
        <time>2011-12-11T09:15:19Z</time>
      </trkpt>
      <trkpt lat="49.29786" lon="2.50477">
        <ele>96</ele>
        <time>2011-12-11T09:15:27Z</time>
      </trkpt>
      <trkpt lat="49.29779" lon="2.50467">
        <ele>96</ele>
        <time>2011-12-11T09:15:35Z</time>
      </trkpt>
      <trkpt lat="49.29772" lon="2.50456">
        <ele>96</ele>
        <time>2011-12-11T09:15:42Z</time>
      </trkpt>
      <trkpt lat="49.29766" lon="2.50445">
        <ele>96</ele>
        <time>2011-12-11T09:15:50Z</time>
      </trkpt>
      <trkpt lat="49.29759" lon="2.50434">
        <ele>96</ele>
        <time>2011-12-11T09:15:59Z</time>
      </trkpt>
      <trkpt lat="49.29753" lon="2.50424">
        <ele>96</ele>
        <time>2011-12-11T09:16:07Z</time>
      </trkpt>
      <trkpt lat="49.29745" lon="2.50416">
        <ele>96</ele>
        <time>2011-12-11T09:16:14Z</time>
      </trkpt>
      <trkpt lat="49.29737" lon="2.50406">
        <ele>96</ele>
        <time>2011-12-11T09:16:22Z</time>
      </trkpt>
      <trkpt lat="49.29727" lon="2.50405">
        <ele>96</ele>
        <time>2011-12-11T09:16:33Z</time>
      </trkpt>
      <trkpt lat="49.29719" lon="2.50398">
        <ele>90</ele>
        <time>2011-12-11T09:16:37Z</time>
      </trkpt>
      <trkpt lat="49.29711" lon="2.50392">
        <ele>99</ele>
        <time>2011-12-11T09:16:41Z</time>
      </trkpt>
      <trkpt lat="49.29702" lon="2.50385">
        <ele>106</ele>
        <time>2011-12-11T09:16:49Z</time>
      </trkpt>
      <trkpt lat="49.29695" lon="2.50375">
        <ele>106</ele>
        <time>2011-12-11T09:16:55Z</time>
      </trkpt>
      <trkpt lat="49.29688" lon="2.50363">
        <ele>100</ele>
        <time>2011-12-11T09:17:07Z</time>
      </trkpt>
      <trkpt lat="49.29683" lon="2.50351">
        <ele>100</ele>
        <time>2011-12-11T09:17:13Z</time>
      </trkpt>
      <trkpt lat="49.29676" lon="2.50337">
        <ele>100</ele>
        <time>2011-12-11T09:17:24Z</time>
      </trkpt>
      <trkpt lat="49.29669" lon="2.50326">
        <ele>105</ele>
        <time>2011-12-11T09:17:33Z</time>
      </trkpt>
      <trkpt lat="49.29665" lon="2.50312">
        <ele>113</ele>
        <time>2011-12-11T09:17:37Z</time>
      </trkpt>
      <trkpt lat="49.29656" lon="2.50304">
        <ele>104</ele>
        <time>2011-12-11T09:17:52Z</time>
      </trkpt>
      <trkpt lat="49.29648" lon="2.50293">
        <ele>104</ele>
        <time>2011-12-11T09:17:57Z</time>
      </trkpt>
      <trkpt lat="49.2964" lon="2.50281">
        <ele>111</ele>
        <time>2011-12-11T09:18:05Z</time>
      </trkpt>
      <trkpt lat="49.29635" lon="2.50268">
        <ele>111</ele>
        <time>2011-12-11T09:18:13Z</time>
      </trkpt>
      <trkpt lat="49.29628" lon="2.50254">
        <ele>111</ele>
        <time>2011-12-11T09:18:18Z</time>
      </trkpt>
      <trkpt lat="49.29628" lon="2.50239">
        <ele>99</ele>
        <time>2011-12-11T09:18:30Z</time>
      </trkpt>
      <trkpt lat="49.2962" lon="2.50228">
        <ele>93</ele>
        <time>2011-12-11T09:18:38Z</time>
      </trkpt>
      <trkpt lat="49.29614" lon="2.50217">
        <ele>93</ele>
        <time>2011-12-11T09:18:44Z</time>
      </trkpt>
      <trkpt lat="49.29608" lon="2.50207">
        <ele>93</ele>
        <time>2011-12-11T09:18:52Z</time>
      </trkpt>
      <trkpt lat="49.29598" lon="2.50211">
        <ele>93</ele>
        <time>2011-12-11T09:19:11Z</time>
      </trkpt>
      <trkpt lat="49.29589" lon="2.50219">
        <ele>93</ele>
        <time>2011-12-11T09:19:20Z</time>
      </trkpt>
      <trkpt lat="49.2958" lon="2.50212">
        <ele>93</ele>
        <time>2011-12-11T09:19:26Z</time>
      </trkpt>
      <trkpt lat="49.29571" lon="2.50202">
        <ele>101</ele>
        <time>2011-12-11T09:19:34Z</time>
      </trkpt>
      <trkpt lat="49.29562" lon="2.50198">
        <ele>101</ele>
        <time>2011-12-11T09:19:42Z</time>
      </trkpt>
      <trkpt lat="49.29554" lon="2.5019">
        <ele>101</ele>
        <time>2011-12-11T09:19:50Z</time>
      </trkpt>
      <trkpt lat="49.29545" lon="2.50186">
        <ele>94</ele>
        <time>2011-12-11T09:20:00Z</time>
      </trkpt>
      <trkpt lat="49.29536" lon="2.5018">
        <ele>81</ele>
        <time>2011-12-11T09:20:13Z</time>
      </trkpt>
      <trkpt lat="49.29526" lon="2.50183">
        <ele>70</ele>
        <time>2011-12-11T09:20:26Z</time>
      </trkpt>
      <trkpt lat="49.29517" lon="2.50182">
        <ele>56</ele>
        <time>2011-12-11T09:20:38Z</time>
      </trkpt>
      <trkpt lat="49.29508" lon="2.50181">
        <ele>51</ele>
        <time>2011-12-11T09:20:47Z</time>
      </trkpt>
      <trkpt lat="49.29499" lon="2.50175">
        <ele>63</ele>
        <time>2011-12-11T09:20:56Z</time>
      </trkpt>
      <trkpt lat="49.29491" lon="2.50183">
        <ele>68</ele>
        <time>2011-12-11T09:21:10Z</time>
      </trkpt>
      <trkpt lat="49.29482" lon="2.50189">
        <ele>68</ele>
        <time>2011-12-11T09:21:21Z</time>
      </trkpt>
      <trkpt lat="49.29473" lon="2.50185">
        <ele>68</ele>
        <time>2011-12-11T09:21:27Z</time>
      </trkpt>
      <trkpt lat="49.29466" lon="2.50175">
        <ele>68</ele>
        <time>2011-12-11T09:21:33Z</time>
      </trkpt>
      <trkpt lat="49.29461" lon="2.50164">
        <ele>68</ele>
        <time>2011-12-11T09:21:43Z</time>
      </trkpt>
      <trkpt lat="49.29451" lon="2.50162">
        <ele>68</ele>
        <time>2011-12-11T09:21:52Z</time>
      </trkpt>
      <trkpt lat="49.29448" lon="2.50148">
        <ele>68</ele>
        <time>2011-12-11T09:22:06Z</time>
      </trkpt>
      <trkpt lat="49.29438" lon="2.50143">
        <ele>68</ele>
        <time>2011-12-11T09:22:17Z</time>
      </trkpt>
      <trkpt lat="49.29428" lon="2.50146">
        <ele>68</ele>
        <time>2011-12-11T09:22:32Z</time>
      </trkpt>
      <trkpt lat="49.29418" lon="2.5014">
        <ele>68</ele>
        <time>2011-12-11T09:22:42Z</time>
      </trkpt>
      <trkpt lat="49.2941" lon="2.50132">
        <ele>62</ele>
        <time>2011-12-11T09:22:52Z</time>
      </trkpt>
      <trkpt lat="49.29402" lon="2.50123">
        <ele>62</ele>
        <time>2011-12-11T09:23:07Z</time>
      </trkpt>
      <trkpt lat="49.29394" lon="2.50117">
        <ele>62</ele>
        <time>2011-12-11T09:23:12Z</time>
      </trkpt>
      <trkpt lat="49.29387" lon="2.50106">
        <ele>56</ele>
        <time>2011-12-11T09:23:24Z</time>
      </trkpt>
      <trkpt lat="49.29381" lon="2.50096">
        <ele>56</ele>
        <time>2011-12-11T09:23:33Z</time>
      </trkpt>
      <trkpt lat="49.29378" lon="2.50083">
        <ele>56</ele>
        <time>2011-12-11T09:23:43Z</time>
      </trkpt>
      <trkpt lat="49.29375" lon="2.50069">
        <ele>56</ele>
        <time>2011-12-11T09:23:49Z</time>
      </trkpt>
      <trkpt lat="49.29381" lon="2.50057">
        <ele>56</ele>
        <time>2011-12-11T09:23:58Z</time>
      </trkpt>
      <trkpt lat="49.29385" lon="2.50043">
        <ele>56</ele>
        <time>2011-12-11T09:24:05Z</time>
      </trkpt>
      <trkpt lat="49.29394" lon="2.50037">
        <ele>56</ele>
        <time>2011-12-11T09:24:13Z</time>
      </trkpt>
      <trkpt lat="49.294" lon="2.50026">
        <ele>50</ele>
        <time>2011-12-11T09:24:22Z</time>
      </trkpt>
      <trkpt lat="49.29408" lon="2.50018">
        <ele>50</ele>
        <time>2011-12-11T09:24:31Z</time>
      </trkpt>
      <trkpt lat="49.2942" lon="2.5001">
        <ele>56</ele>
        <time>2011-12-11T09:24:37Z</time>
      </trkpt>
      <trkpt lat="49.29423" lon="2.49996">
        <ele>56</ele>
        <time>2011-12-11T09:24:43Z</time>
      </trkpt>
      <trkpt lat="49.29427" lon="2.49982">
        <ele>61</ele>
        <time>2011-12-11T09:24:49Z</time>
      </trkpt>
      <trkpt lat="49.2943" lon="2.49969">
        <ele>61</ele>
        <time>2011-12-11T09:24:57Z</time>
      </trkpt>
      <trkpt lat="49.29437" lon="2.49957">
        <ele>61</ele>
        <time>2011-12-11T09:25:06Z</time>
      </trkpt>
      <trkpt lat="49.29437" lon="2.49943">
        <ele>61</ele>
        <time>2011-12-11T09:25:12Z</time>
      </trkpt>
      <trkpt lat="49.29434" lon="2.49929">
        <ele>67</ele>
        <time>2011-12-11T09:25:17Z</time>
      </trkpt>
      <trkpt lat="49.29425" lon="2.49924">
        <ele>55</ele>
        <time>2011-12-11T09:25:38Z</time>
      </trkpt>
      <trkpt lat="49.29416" lon="2.49919">
        <ele>55</ele>
        <time>2011-12-11T09:25:46Z</time>
      </trkpt>
      <trkpt lat="49.29407" lon="2.49919">
        <ele>55</ele>
        <time>2011-12-11T09:25:53Z</time>
      </trkpt>
      <trkpt lat="49.29397" lon="2.49919">
        <ele>55</ele>
        <time>2011-12-11T09:26:02Z</time>
      </trkpt>
      <trkpt lat="49.29387" lon="2.49921">
        <ele>50</ele>
        <time>2011-12-11T09:26:11Z</time>
      </trkpt>
      <trkpt lat="49.29381" lon="2.4991">
        <ele>50</ele>
        <time>2011-12-11T09:26:28Z</time>
      </trkpt>
      <trkpt lat="49.29371" lon="2.4991">
        <ele>44</ele>
        <time>2011-12-11T09:26:43Z</time>
      </trkpt>
      <trkpt lat="49.29362" lon="2.49918">
        <ele>44</ele>
        <time>2011-12-11T09:26:55Z</time>
      </trkpt>
      <trkpt lat="49.29354" lon="2.49926">
        <ele>44</ele>
        <time>2011-12-11T09:27:03Z</time>
      </trkpt>
      <trkpt lat="49.29345" lon="2.49932">
        <ele>44</ele>
        <time>2011-12-11T09:27:11Z</time>
      </trkpt>
      <trkpt lat="49.29336" lon="2.4994">
        <ele>44</ele>
        <time>2011-12-11T09:27:19Z</time>
      </trkpt>
      <trkpt lat="49.29327" lon="2.49947">
        <ele>36</ele>
        <time>2011-12-11T09:27:28Z</time>
      </trkpt>
      <trkpt lat="49.29317" lon="2.4995">
        <ele>36</ele>
        <time>2011-12-11T09:27:37Z</time>
      </trkpt>
      <trkpt lat="49.29308" lon="2.49947">
        <ele>36</ele>
        <time>2011-12-11T09:27:44Z</time>
      </trkpt>
      <trkpt lat="49.29306" lon="2.49933">
        <ele>44</ele>
        <time>2011-12-11T09:27:51Z</time>
      </trkpt>
      <trkpt lat="49.29304" lon="2.49919">
        <ele>50</ele>
        <time>2011-12-11T09:27:59Z</time>
      </trkpt>
      <trkpt lat="49.29308" lon="2.49905">
        <ele>50</ele>
        <time>2011-12-11T09:28:10Z</time>
      </trkpt>
      <trkpt lat="49.29317" lon="2.49897">
        <ele>50</ele>
        <time>2011-12-11T09:28:19Z</time>
      </trkpt>
      <trkpt lat="49.29324" lon="2.49887">
        <ele>50</ele>
        <time>2011-12-11T09:28:29Z</time>
      </trkpt>
      <trkpt lat="49.29332" lon="2.49877">
        <ele>50</ele>
        <time>2011-12-11T09:28:37Z</time>
      </trkpt>
      <trkpt lat="49.2934" lon="2.4987">
        <ele>50</ele>
        <time>2011-12-11T09:28:47Z</time>
      </trkpt>
      <trkpt lat="49.29348" lon="2.49861">
        <ele>50</ele>
        <time>2011-12-11T09:28:55Z</time>
      </trkpt>
      <trkpt lat="49.29354" lon="2.4985">
        <ele>55</ele>
        <time>2011-12-11T09:29:05Z</time>
      </trkpt>
      <trkpt lat="49.29361" lon="2.4984">
        <ele>55</ele>
        <time>2011-12-11T09:29:14Z</time>
      </trkpt>
      <trkpt lat="49.29364" lon="2.49827">
        <ele>55</ele>
        <time>2011-12-11T09:29:24Z</time>
      </trkpt>
      <trkpt lat="49.29364" lon="2.49812">
        <ele>61</ele>
        <time>2011-12-11T09:29:33Z</time>
      </trkpt>
      <trkpt lat="49.29362" lon="2.49798">
        <ele>61</ele>
        <time>2011-12-11T09:29:45Z</time>
      </trkpt>
    </trkseg>
  </trk>
</gpx>